sensor_id;sensor_type;location;lat;lon;timestamp;P1;durP1;ratioP1;P2;durP2;ratioP2
61252;SDS011;47127;47.516;8.596;2023-04-10T00:02:18;12.52;;;6.60;;
61252;SDS011;47127;47.516;8.596;2023-04-10T00:04:44;10.32;;;5.43;;
61252;SDS011;47127;47.516;8.596;2023-04-10T00:07:10;11.38;;;5.55;;
61252;SDS011;47127;47.516;8.596;2023-04-10T00:09:36;11.13;;;5.90;;
61252;SDS011;47127;47.516;8.596;2023-04-10T00:12:03;10.85;;;5.00;;
61252;SDS011;47127;47.516;8.596;2023-04-10T00:14:28;11.20;;;5.75;;
61252;SDS011;47127;47.516;8.596;2023-04-10T00:16:54;12.30;;;6.15;;
61252;SDS011;47127;47.516;8.596;2023-04-10T00:19:20;10.70;;;5.13;;
61252;SDS011;47127;47.516;8.596;2023-04-10T00:21:45;11.63;;;5.35;;
61252;SDS011;47127;47.516;8.596;2023-04-10T00:24:11;23.63;;;6.30;;
61252;SDS011;47127;47.516;8.596;2023-04-10T00:26:37;9.95;;;5.40;;
61252;SDS011;47127;47.516;8.596;2023-04-10T00:29:02;10.70;;;5.60;;
61252;SDS011;47127;47.516;8.596;2023-04-10T00:31:28;10.75;;;5.60;;
61252;SDS011;47127;47.516;8.596;2023-04-10T00:33:54;10.40;;;5.18;;
61252;SDS011;47127;47.516;8.596;2023-04-10T00:36:20;11.20;;;6.05;;
61252;SDS011;47127;47.516;8.596;2023-04-10T00:38:46;10.80;;;5.60;;
61252;SDS011;47127;47.516;8.596;2023-04-10T00:41:12;11.23;;;6.00;;
61252;SDS011;47127;47.516;8.596;2023-04-10T00:43:38;10.30;;;5.15;;
61252;SDS011;47127;47.516;8.596;2023-04-10T00:46:03;10.23;;;5.68;;
61252;SDS011;47127;47.516;8.596;2023-04-10T00:48:31;11.13;;;5.60;;
61252;SDS011;47127;47.516;8.596;2023-04-10T00:50:57;11.50;;;5.60;;
61252;SDS011;47127;47.516;8.596;2023-04-10T00:53:23;10.73;;;5.28;;
61252;SDS011;47127;47.516;8.596;2023-04-10T00:55:49;10.98;;;5.57;;
61252;SDS011;47127;47.516;8.596;2023-04-10T00:58:15;11.43;;;5.63;;
61252;SDS011;47127;47.516;8.596;2023-04-10T01:00:40;11.35;;;6.13;;
61252;SDS011;47127;47.516;8.596;2023-04-10T01:03:06;10.15;;;5.30;;
61252;SDS011;47127;47.516;8.596;2023-04-10T01:05:41;13.15;;;5.95;;
61252;SDS011;47127;47.516;8.596;2023-04-10T01:11:17;9.85;;;5.35;;
61252;SDS011;47127;47.516;8.596;2023-04-10T01:14:00;10.38;;;5.53;;
61252;SDS011;47127;47.516;8.596;2023-04-10T01:16:40;12.07;;;6.00;;
61252;SDS011;47127;47.516;8.596;2023-04-10T01:19:24;11.77;;;6.15;;
61252;SDS011;47127;47.516;8.596;2023-04-10T01:21:59;12.32;;;6.18;;
61252;SDS011;47127;47.516;8.596;2023-04-10T01:24:37;10.80;;;5.90;;
61252;SDS011;47127;47.516;8.596;2023-04-10T01:27:31;9.70;;;5.32;;
61252;SDS011;47127;47.516;8.596;2023-04-10T01:30:19;11.18;;;5.57;;
61252;SDS011;47127;47.516;8.596;2023-04-10T01:32:47;13.30;;;6.03;;
61252;SDS011;47127;47.516;8.596;2023-04-10T01:35:13;11.32;;;5.78;;
61252;SDS011;47127;47.516;8.596;2023-04-10T01:37:40;13.13;;;5.93;;
61252;SDS011;47127;47.516;8.596;2023-04-10T01:40:09;11.82;;;6.03;;
61252;SDS011;47127;47.516;8.596;2023-04-10T01:42:39;11.60;;;5.90;;
61252;SDS011;47127;47.516;8.596;2023-04-10T01:45:10;11.10;;;5.70;;
61252;SDS011;47127;47.516;8.596;2023-04-10T01:47:40;11.50;;;5.93;;
61252;SDS011;47127;47.516;8.596;2023-04-10T01:50:07;10.77;;;5.47;;
61252;SDS011;47127;47.516;8.596;2023-04-10T01:52:33;10.80;;;5.63;;
61252;SDS011;47127;47.516;8.596;2023-04-10T01:55:00;11.60;;;6.05;;
61252;SDS011;47127;47.516;8.596;2023-04-10T01:57:27;11.45;;;5.75;;
61252;SDS011;47127;47.516;8.596;2023-04-10T01:59:55;11.65;;;5.72;;
61252;SDS011;47127;47.516;8.596;2023-04-10T02:02:21;10.98;;;5.93;;
61252;SDS011;47127;47.516;8.596;2023-04-10T02:04:47;12.18;;;6.55;;
61252;SDS011;47127;47.516;8.596;2023-04-10T02:07:19;10.68;;;5.75;;
61252;SDS011;47127;47.516;8.596;2023-04-10T02:10:02;13.05;;;6.13;;
61252;SDS011;47127;47.516;8.596;2023-04-10T02:12:36;14.38;;;6.63;;
61252;SDS011;47127;47.516;8.596;2023-04-10T02:15:05;13.60;;;7.38;;
61252;SDS011;47127;47.516;8.596;2023-04-10T02:17:33;12.52;;;5.93;;
61252;SDS011;47127;47.516;8.596;2023-04-10T02:20:00;12.52;;;6.00;;
61252;SDS011;47127;47.516;8.596;2023-04-10T02:22:28;10.88;;;5.95;;
61252;SDS011;47127;47.516;8.596;2023-04-10T02:24:53;11.68;;;6.40;;
61252;SDS011;47127;47.516;8.596;2023-04-10T02:27:27;12.38;;;6.07;;
61252;SDS011;47127;47.516;8.596;2023-04-10T02:29:57;12.27;;;6.60;;
61252;SDS011;47127;47.516;8.596;2023-04-10T02:32:23;12.13;;;5.82;;
61252;SDS011;47127;47.516;8.596;2023-04-10T02:34:49;12.02;;;5.95;;
61252;SDS011;47127;47.516;8.596;2023-04-10T02:37:15;11.77;;;5.88;;
61252;SDS011;47127;47.516;8.596;2023-04-10T02:39:40;11.43;;;6.13;;
61252;SDS011;47127;47.516;8.596;2023-04-10T02:42:06;12.52;;;5.85;;
61252;SDS011;47127;47.516;8.596;2023-04-10T02:44:31;13.43;;;5.97;;
61252;SDS011;47127;47.516;8.596;2023-04-10T02:46:57;13.57;;;6.40;;
61252;SDS011;47127;47.516;8.596;2023-04-10T02:49:24;10.95;;;6.00;;
61252;SDS011;47127;47.516;8.596;2023-04-10T02:51:49;12.07;;;6.53;;
61252;SDS011;47127;47.516;8.596;2023-04-10T02:54:15;11.15;;;6.07;;
61252;SDS011;47127;47.516;8.596;2023-04-10T02:56:40;11.75;;;6.22;;
61252;SDS011;47127;47.516;8.596;2023-04-10T02:59:06;11.40;;;6.35;;
61252;SDS011;47127;47.516;8.596;2023-04-10T03:01:32;14.38;;;6.93;;
61252;SDS011;47127;47.516;8.596;2023-04-10T03:03:58;17.02;;;6.88;;
61252;SDS011;47127;47.516;8.596;2023-04-10T03:06:23;12.25;;;6.40;;
61252;SDS011;47127;47.516;8.596;2023-04-10T03:08:52;13.65;;;5.82;;
61252;SDS011;47127;47.516;8.596;2023-04-10T03:11:19;13.15;;;6.57;;
61252;SDS011;47127;47.516;8.596;2023-04-10T03:13:44;9.50;;;4.95;;
61252;SDS011;47127;47.516;8.596;2023-04-10T03:16:10;11.23;;;5.65;;
61252;SDS011;47127;47.516;8.596;2023-04-10T03:18:35;12.13;;;5.93;;
61252;SDS011;47127;47.516;8.596;2023-04-10T03:21:01;11.75;;;6.25;;
61252;SDS011;47127;47.516;8.596;2023-04-10T03:23:27;11.98;;;6.60;;
61252;SDS011;47127;47.516;8.596;2023-04-10T03:25:53;11.02;;;6.22;;
61252;SDS011;47127;47.516;8.596;2023-04-10T03:28:19;11.73;;;6.10;;
61252;SDS011;47127;47.516;8.596;2023-04-10T03:30:47;12.45;;;7.00;;
61252;SDS011;47127;47.516;8.596;2023-04-10T03:33:13;12.68;;;6.78;;
61252;SDS011;47127;47.516;8.596;2023-04-10T03:35:39;12.45;;;6.20;;
61252;SDS011;47127;47.516;8.596;2023-04-10T03:38:05;11.50;;;5.68;;
61252;SDS011;47127;47.516;8.596;2023-04-10T03:40:30;13.50;;;7.05;;
61252;SDS011;47127;47.516;8.596;2023-04-10T03:42:58;12.85;;;6.80;;
61252;SDS011;47127;47.516;8.596;2023-04-10T03:45:24;12.05;;;6.15;;
61252;SDS011;47127;47.516;8.596;2023-04-10T03:47:50;13.43;;;6.72;;
61252;SDS011;47127;47.516;8.596;2023-04-10T03:50:16;13.57;;;6.72;;
61252;SDS011;47127;47.516;8.596;2023-04-10T03:52:42;13.02;;;6.15;;
61252;SDS011;47127;47.516;8.596;2023-04-10T03:55:07;11.05;;;6.18;;
61252;SDS011;47127;47.516;8.596;2023-04-10T03:57:33;13.50;;;6.65;;
61252;SDS011;47127;47.516;8.596;2023-04-10T03:59:59;12.95;;;7.00;;
61252;SDS011;47127;47.516;8.596;2023-04-10T04:02:24;11.43;;;5.88;;
61252;SDS011;47127;47.516;8.596;2023-04-10T04:04:51;10.60;;;5.45;;
61252;SDS011;47127;47.516;8.596;2023-04-10T04:07:17;13.18;;;5.78;;
61252;SDS011;47127;47.516;8.596;2023-04-10T04:09:42;14.02;;;6.63;;
61252;SDS011;47127;47.516;8.596;2023-04-10T04:12:08;12.82;;;6.57;;
61252;SDS011;47127;47.516;8.596;2023-04-10T04:14:34;12.48;;;7.13;;
61252;SDS011;47127;47.516;8.596;2023-04-10T04:16:59;12.13;;;6.28;;
61252;SDS011;47127;47.516;8.596;2023-04-10T04:19:25;14.15;;;6.88;;
61252;SDS011;47127;47.516;8.596;2023-04-10T04:21:51;13.57;;;6.82;;
61252;SDS011;47127;47.516;8.596;2023-04-10T04:24:16;12.57;;;6.13;;
61252;SDS011;47127;47.516;8.596;2023-04-10T04:26:42;13.65;;;6.65;;
61252;SDS011;47127;47.516;8.596;2023-04-10T04:29:07;14.95;;;7.22;;
61252;SDS011;47127;47.516;8.596;2023-04-10T04:31:33;12.55;;;6.63;;
61252;SDS011;47127;47.516;8.596;2023-04-10T04:33:59;13.95;;;6.85;;
61252;SDS011;47127;47.516;8.596;2023-04-10T04:36:24;12.70;;;6.97;;
61252;SDS011;47127;47.516;8.596;2023-04-10T04:38:52;14.27;;;7.05;;
61252;SDS011;47127;47.516;8.596;2023-04-10T04:41:18;12.85;;;6.53;;
61252;SDS011;47127;47.516;8.596;2023-04-10T04:43:47;12.40;;;6.57;;
61252;SDS011;47127;47.516;8.596;2023-04-10T04:46:13;13.82;;;6.40;;
61252;SDS011;47127;47.516;8.596;2023-04-10T04:48:39;12.75;;;6.55;;
61252;SDS011;47127;47.516;8.596;2023-04-10T04:51:05;14.02;;;7.15;;
61252;SDS011;47127;47.516;8.596;2023-04-10T04:53:31;12.23;;;5.97;;
61252;SDS011;47127;47.516;8.596;2023-04-10T04:55:57;12.98;;;6.32;;
61252;SDS011;47127;47.516;8.596;2023-04-10T04:58:22;12.90;;;6.43;;
61252;SDS011;47127;47.516;8.596;2023-04-10T05:00:48;12.70;;;6.55;;
61252;SDS011;47127;47.516;8.596;2023-04-10T05:03:15;11.10;;;5.90;;
61252;SDS011;47127;47.516;8.596;2023-04-10T05:05:41;12.52;;;6.38;;
61252;SDS011;47127;47.516;8.596;2023-04-10T05:08:07;11.13;;;6.10;;
61252;SDS011;47127;47.516;8.596;2023-04-10T05:10:33;12.77;;;6.50;;
61252;SDS011;47127;47.516;8.596;2023-04-10T05:12:59;13.07;;;6.65;;
61252;SDS011;47127;47.516;8.596;2023-04-10T05:15:24;12.57;;;7.13;;
61252;SDS011;47127;47.516;8.596;2023-04-10T05:17:50;13.10;;;6.65;;
61252;SDS011;47127;47.516;8.596;2023-04-10T05:20:16;11.88;;;6.15;;
61252;SDS011;47127;47.516;8.596;2023-04-10T05:22:43;10.90;;;6.05;;
61252;SDS011;47127;47.516;8.596;2023-04-10T05:25:08;11.95;;;5.68;;
61252;SDS011;47127;47.516;8.596;2023-04-10T05:27:34;13.18;;;5.97;;
61252;SDS011;47127;47.516;8.596;2023-04-10T05:29:59;13.57;;;6.22;;
61252;SDS011;47127;47.516;8.596;2023-04-10T05:32:25;11.82;;;6.38;;
61252;SDS011;47127;47.516;8.596;2023-04-10T05:34:51;12.52;;;5.85;;
61252;SDS011;47127;47.516;8.596;2023-04-10T05:37:16;11.15;;;6.15;;
61252;SDS011;47127;47.516;8.596;2023-04-10T05:39:42;11.30;;;5.97;;
61252;SDS011;47127;47.516;8.596;2023-04-10T05:42:07;11.43;;;5.63;;
61252;SDS011;47127;47.516;8.596;2023-04-10T05:44:33;11.93;;;5.80;;
61252;SDS011;47127;47.516;8.596;2023-04-10T05:46:58;12.88;;;6.63;;
61252;SDS011;47127;47.516;8.596;2023-04-10T05:49:24;10.20;;;5.63;;
61252;SDS011;47127;47.516;8.596;2023-04-10T05:51:49;11.65;;;6.43;;
61252;SDS011;47127;47.516;8.596;2023-04-10T05:54:16;14.57;;;6.47;;
61252;SDS011;47127;47.516;8.596;2023-04-10T05:56:42;12.45;;;6.22;;
61252;SDS011;47127;47.516;8.596;2023-04-10T05:59:07;11.65;;;5.88;;
61252;SDS011;47127;47.516;8.596;2023-04-10T06:01:33;13.20;;;6.55;;
61252;SDS011;47127;47.516;8.596;2023-04-10T06:03:58;12.48;;;6.05;;
61252;SDS011;47127;47.516;8.596;2023-04-10T06:06:24;13.13;;;6.78;;
61252;SDS011;47127;47.516;8.596;2023-04-10T06:08:50;12.10;;;6.07;;
61252;SDS011;47127;47.516;8.596;2023-04-10T06:11:16;10.90;;;5.88;;
61252;SDS011;47127;47.516;8.596;2023-04-10T06:13:42;13.77;;;6.80;;
61252;SDS011;47127;47.516;8.596;2023-04-10T06:16:07;13.95;;;7.15;;
61252;SDS011;47127;47.516;8.596;2023-04-10T06:18:33;11.80;;;6.22;;
61252;SDS011;47127;47.516;8.596;2023-04-10T06:20:59;13.00;;;6.35;;
61252;SDS011;47127;47.516;8.596;2023-04-10T06:23:26;12.10;;;5.68;;
61252;SDS011;47127;47.516;8.596;2023-04-10T06:25:52;11.35;;;6.50;;
61252;SDS011;47127;47.516;8.596;2023-04-10T06:28:19;12.80;;;6.47;;
61252;SDS011;47127;47.516;8.596;2023-04-10T06:30:44;12.60;;;6.20;;
61252;SDS011;47127;47.516;8.596;2023-04-10T06:33:10;12.23;;;6.35;;
61252;SDS011;47127;47.516;8.596;2023-04-10T06:35:36;12.23;;;5.93;;
61252;SDS011;47127;47.516;8.596;2023-04-10T06:38:01;11.88;;;6.10;;
61252;SDS011;47127;47.516;8.596;2023-04-10T06:40:31;16.13;;;6.32;;
61252;SDS011;47127;47.516;8.596;2023-04-10T06:42:58;10.73;;;5.30;;
61252;SDS011;47127;47.516;8.596;2023-04-10T06:45:24;12.57;;;6.18;;
61252;SDS011;47127;47.516;8.596;2023-04-10T06:47:50;11.35;;;5.95;;
61252;SDS011;47127;47.516;8.596;2023-04-10T06:50:15;11.32;;;5.55;;
61252;SDS011;47127;47.516;8.596;2023-04-10T06:52:41;11.80;;;5.80;;
61252;SDS011;47127;47.516;8.596;2023-04-10T06:55:07;11.32;;;5.57;;
61252;SDS011;47127;47.516;8.596;2023-04-10T06:57:33;12.52;;;6.03;;
61252;SDS011;47127;47.516;8.596;2023-04-10T06:59:59;12.40;;;6.22;;
61252;SDS011;47127;47.516;8.596;2023-04-10T07:02:24;13.38;;;6.15;;
61252;SDS011;47127;47.516;8.596;2023-04-10T07:04:50;11.00;;;5.60;;
61252;SDS011;47127;47.516;8.596;2023-04-10T07:07:16;12.10;;;6.15;;
61252;SDS011;47127;47.516;8.596;2023-04-10T07:09:43;13.73;;;6.15;;
61252;SDS011;47127;47.516;8.596;2023-04-10T07:12:09;12.52;;;6.07;;
61252;SDS011;47127;47.516;8.596;2023-04-10T07:14:35;15.45;;;6.47;;
61252;SDS011;47127;47.516;8.596;2023-04-10T07:17:00;12.18;;;6.15;;
61252;SDS011;47127;47.516;8.596;2023-04-10T07:19:27;13.05;;;6.32;;
61252;SDS011;47127;47.516;8.596;2023-04-10T07:21:53;12.02;;;6.18;;
61252;SDS011;47127;47.516;8.596;2023-04-10T07:24:18;12.27;;;6.10;;
61252;SDS011;47127;47.516;8.596;2023-04-10T07:26:44;11.82;;;6.10;;
61252;SDS011;47127;47.516;8.596;2023-04-10T07:29:10;11.55;;;5.88;;
61252;SDS011;47127;47.516;8.596;2023-04-10T07:31:37;13.10;;;5.72;;
61252;SDS011;47127;47.516;8.596;2023-04-10T07:34:03;12.48;;;6.32;;
61252;SDS011;47127;47.516;8.596;2023-04-10T07:36:29;11.77;;;5.47;;
61252;SDS011;47127;47.516;8.596;2023-04-10T07:38:55;10.98;;;5.57;;
61252;SDS011;47127;47.516;8.596;2023-04-10T07:41:21;9.82;;;5.25;;
61252;SDS011;47127;47.516;8.596;2023-04-10T07:43:48;11.35;;;5.40;;
61252;SDS011;47127;47.516;8.596;2023-04-10T07:46:13;10.02;;;5.00;;
61252;SDS011;47127;47.516;8.596;2023-04-10T07:48:39;11.77;;;5.50;;
61252;SDS011;47127;47.516;8.596;2023-04-10T07:51:05;9.20;;;4.32;;
61252;SDS011;47127;47.516;8.596;2023-04-10T07:53:33;10.10;;;4.78;;
61252;SDS011;47127;47.516;8.596;2023-04-10T07:56:00;10.23;;;5.13;;
61252;SDS011;47127;47.516;8.596;2023-04-10T07:58:25;11.85;;;5.97;;
61252;SDS011;47127;47.516;8.596;2023-04-10T08:00:51;10.80;;;5.05;;
61252;SDS011;47127;47.516;8.596;2023-04-10T08:03:16;10.52;;;4.97;;
61252;SDS011;47127;47.516;8.596;2023-04-10T08:05:42;10.18;;;5.22;;
61252;SDS011;47127;47.516;8.596;2023-04-10T08:08:08;9.38;;;4.97;;
61252;SDS011;47127;47.516;8.596;2023-04-10T08:10:36;12.02;;;5.07;;
61252;SDS011;47127;47.516;8.596;2023-04-10T08:13:03;10.38;;;5.45;;
61252;SDS011;47127;47.516;8.596;2023-04-10T08:15:29;9.88;;;4.78;;
61252;SDS011;47127;47.516;8.596;2023-04-10T08:17:55;9.73;;;5.20;;
61252;SDS011;47127;47.516;8.596;2023-04-10T08:20:20;10.10;;;4.72;;
61252;SDS011;47127;47.516;8.596;2023-04-10T08:22:46;9.40;;;4.38;;
61252;SDS011;47127;47.516;8.596;2023-04-10T08:25:12;9.68;;;4.82;;
61252;SDS011;47127;47.516;8.596;2023-04-10T08:27:37;9.70;;;5.25;;
61252;SDS011;47127;47.516;8.596;2023-04-10T08:30:03;9.50;;;4.43;;
61252;SDS011;47127;47.516;8.596;2023-04-10T08:32:29;9.25;;;4.93;;
61252;SDS011;47127;47.516;8.596;2023-04-10T08:34:55;8.40;;;4.38;;
61252;SDS011;47127;47.516;8.596;2023-04-10T08:37:22;7.47;;;4.05;;
61252;SDS011;47127;47.516;8.596;2023-04-10T08:39:48;9.48;;;4.75;;
61252;SDS011;47127;47.516;8.596;2023-04-10T08:42:14;9.35;;;5.28;;
61252;SDS011;47127;47.516;8.596;2023-04-10T08:44:39;12.30;;;5.13;;
61252;SDS011;47127;47.516;8.596;2023-04-10T08:47:05;9.68;;;5.40;;
61252;SDS011;47127;47.516;8.596;2023-04-10T08:49:46;9.82;;;5.00;;
61252;SDS011;47127;47.516;8.596;2023-04-10T08:52:20;9.55;;;4.82;;
61252;SDS011;47127;47.516;8.596;2023-04-10T08:54:48;9.48;;;5.03;;
61252;SDS011;47127;47.516;8.596;2023-04-10T08:57:17;17.50;;;5.70;;
61252;SDS011;47127;47.516;8.596;2023-04-10T08:59:45;12.90;;;5.65;;
61252;SDS011;47127;47.516;8.596;2023-04-10T09:02:11;8.85;;;4.90;;
61252;SDS011;47127;47.516;8.596;2023-04-10T09:04:37;8.52;;;4.85;;
61252;SDS011;47127;47.516;8.596;2023-04-10T09:07:02;9.35;;;4.85;;
61252;SDS011;47127;47.516;8.596;2023-04-10T09:09:28;10.70;;;5.15;;
61252;SDS011;47127;47.516;8.596;2023-04-10T09:11:57;10.23;;;5.30;;
61252;SDS011;47127;47.516;8.596;2023-04-10T09:16:51;10.70;;;5.68;;
61252;SDS011;47127;47.516;8.596;2023-04-10T09:19:31;10.30;;;4.97;;
61252;SDS011;47127;47.516;8.596;2023-04-10T09:21:57;8.75;;;5.25;;
61252;SDS011;47127;47.516;8.596;2023-04-10T09:24:23;10.82;;;5.65;;
61252;SDS011;47127;47.516;8.596;2023-04-10T09:26:49;9.85;;;5.30;;
61252;SDS011;47127;47.516;8.596;2023-04-10T09:29:15;10.05;;;5.35;;
61252;SDS011;47127;47.516;8.596;2023-04-10T09:31:41;9.50;;;5.30;;
61252;SDS011;47127;47.516;8.596;2023-04-10T09:34:11;8.70;;;4.10;;
61252;SDS011;47127;47.516;8.596;2023-04-10T09:36:42;6.57;;;3.97;;
61252;SDS011;47127;47.516;8.596;2023-04-10T09:39:09;8.70;;;4.28;;
61252;SDS011;47127;47.516;8.596;2023-04-10T09:41:48;7.20;;;3.92;;
61252;SDS011;47127;47.516;8.596;2023-04-10T09:44:16;8.95;;;4.10;;
61252;SDS011;47127;47.516;8.596;2023-04-10T09:46:51;7.50;;;4.18;;
61252;SDS011;47127;47.516;8.596;2023-04-10T09:49:17;8.48;;;4.40;;
61252;SDS011;47127;47.516;8.596;2023-04-10T09:51:43;9.27;;;4.75;;
61252;SDS011;47127;47.516;8.596;2023-04-10T09:54:09;7.57;;;4.43;;
61252;SDS011;47127;47.516;8.596;2023-04-10T09:56:35;9.60;;;4.50;;
61252;SDS011;47127;47.516;8.596;2023-04-10T09:59:03;7.25;;;3.72;;
61252;SDS011;47127;47.516;8.596;2023-04-10T10:01:31;9.10;;;4.68;;
61252;SDS011;47127;47.516;8.596;2023-04-10T10:04:01;7.95;;;4.45;;
61252;SDS011;47127;47.516;8.596;2023-04-10T10:06:32;7.22;;;3.70;;
61252;SDS011;47127;47.516;8.596;2023-04-10T10:09:01;6.07;;;3.67;;
61252;SDS011;47127;47.516;8.596;2023-04-10T10:11:28;6.85;;;3.85;;
61252;SDS011;47127;47.516;8.596;2023-04-10T10:13:57;8.25;;;4.38;;
61252;SDS011;47127;47.516;8.596;2023-04-10T10:22:28;6.80;;;3.95;;
61252;SDS011;47127;47.516;8.596;2023-04-10T10:24:54;8.80;;;4.00;;
61252;SDS011;47127;47.516;8.596;2023-04-10T10:27:23;8.55;;;4.60;;
61252;SDS011;47127;47.516;8.596;2023-04-10T10:29:50;7.70;;;4.40;;
61252;SDS011;47127;47.516;8.596;2023-04-10T10:32:17;9.80;;;4.53;;
61252;SDS011;47127;47.516;8.596;2023-04-10T10:34:43;9.05;;;4.50;;
61252;SDS011;47127;47.516;8.596;2023-04-10T10:37:11;7.93;;;4.15;;
61252;SDS011;47127;47.516;8.596;2023-04-10T10:39:46;7.47;;;3.97;;
61252;SDS011;47127;47.516;8.596;2023-04-10T10:42:39;8.48;;;4.35;;
61252;SDS011;47127;47.516;8.596;2023-04-10T10:45:10;6.70;;;3.85;;
61252;SDS011;47127;47.516;8.596;2023-04-10T10:47:43;7.00;;;4.07;;
61252;SDS011;47127;47.516;8.596;2023-04-10T10:50:12;8.10;;;4.25;;
61252;SDS011;47127;47.516;8.596;2023-04-10T11:05:53;6.90;;;3.80;;
61252;SDS011;47127;47.516;8.596;2023-04-10T11:11:00;7.20;;;4.00;;
61252;SDS011;47127;47.516;8.596;2023-04-10T11:13:31;6.85;;;4.03;;
61252;SDS011;47127;47.516;8.596;2023-04-10T11:15:58;7.18;;;3.95;;
61252;SDS011;47127;47.516;8.596;2023-04-10T11:29:31;8.10;;;4.65;;
61252;SDS011;47127;47.516;8.596;2023-04-10T11:31:58;7.60;;;4.15;;
61252;SDS011;47127;47.516;8.596;2023-04-10T11:34:28;7.60;;;3.85;;
61252;SDS011;47127;47.516;8.596;2023-04-10T11:36:57;8.10;;;4.63;;
61252;SDS011;47127;47.516;8.596;2023-04-10T11:39:27;6.70;;;3.92;;
61252;SDS011;47127;47.516;8.596;2023-04-10T11:41:54;8.38;;;4.60;;
61252;SDS011;47127;47.516;8.596;2023-04-10T11:46:59;7.00;;;4.13;;
61252;SDS011;47127;47.516;8.596;2023-04-10T11:49:31;8.73;;;4.65;;
61252;SDS011;47127;47.516;8.596;2023-04-10T11:51:58;8.38;;;4.50;;
61252;SDS011;47127;47.516;8.596;2023-04-10T11:54:26;7.88;;;4.50;;
61252;SDS011;47127;47.516;8.596;2023-04-10T11:59:31;7.07;;;4.07;;
61252;SDS011;47127;47.516;8.596;2023-04-10T12:02:11;6.90;;;4.05;;
61252;SDS011;47127;47.516;8.596;2023-04-10T12:04:38;6.15;;;3.50;;
61252;SDS011;47127;47.516;8.596;2023-04-10T12:07:05;5.72;;;3.50;;
61252;SDS011;47127;47.516;8.596;2023-04-10T12:09:31;6.03;;;3.80;;
61252;SDS011;47127;47.516;8.596;2023-04-10T12:11:58;6.20;;;3.70;;
61252;SDS011;47127;47.516;8.596;2023-04-10T12:14:34;6.25;;;3.50;;
61252;SDS011;47127;47.516;8.596;2023-04-10T12:17:01;5.40;;;3.33;;
61252;SDS011;47127;47.516;8.596;2023-04-10T12:19:28;6.85;;;3.97;;
61252;SDS011;47127;47.516;8.596;2023-04-10T12:21:54;5.55;;;3.03;;
61252;SDS011;47127;47.516;8.596;2023-04-10T12:24:40;7.22;;;3.40;;
61252;SDS011;47127;47.516;8.596;2023-04-10T12:27:14;4.95;;;2.72;;
61252;SDS011;47127;47.516;8.596;2023-04-10T12:29:40;5.03;;;2.95;;
61252;SDS011;47127;47.516;8.596;2023-04-10T12:32:07;5.03;;;3.28;;
61252;SDS011;47127;47.516;8.596;2023-04-10T12:34:33;6.75;;;3.22;;
61252;SDS011;47127;47.516;8.596;2023-04-10T12:37:00;6.13;;;3.33;;
61252;SDS011;47127;47.516;8.596;2023-04-10T12:39:26;5.18;;;2.92;;
61252;SDS011;47127;47.516;8.596;2023-04-10T12:41:52;5.82;;;3.35;;
61252;SDS011;47127;47.516;8.596;2023-04-10T12:44:18;5.30;;;3.38;;
61252;SDS011;47127;47.516;8.596;2023-04-10T12:46:44;4.80;;;2.72;;
61252;SDS011;47127;47.516;8.596;2023-04-10T12:49:14;6.22;;;3.33;;
61252;SDS011;47127;47.516;8.596;2023-04-10T12:51:44;7.82;;;3.08;;
61252;SDS011;47127;47.516;8.596;2023-04-10T12:54:33;8.50;;;3.05;;
61252;SDS011;47127;47.516;8.596;2023-04-10T12:57:01;4.22;;;3.08;;
61252;SDS011;47127;47.516;8.596;2023-04-10T12:59:30;5.30;;;2.90;;
61252;SDS011;47127;47.516;8.596;2023-04-10T13:01:56;5.85;;;3.22;;
61252;SDS011;47127;47.516;8.596;2023-04-10T13:04:22;5.63;;;3.53;;
61252;SDS011;47127;47.516;8.596;2023-04-10T13:06:48;5.88;;;3.17;;
61252;SDS011;47127;47.516;8.596;2023-04-10T13:09:16;5.03;;;2.95;;
61252;SDS011;47127;47.516;8.596;2023-04-10T13:11:42;5.10;;;2.80;;
61252;SDS011;47127;47.516;8.596;2023-04-10T13:14:08;4.65;;;2.88;;
61252;SDS011;47127;47.516;8.596;2023-04-10T13:16:34;6.85;;;2.95;;
61252;SDS011;47127;47.516;8.596;2023-04-10T13:19:00;4.28;;;2.47;;
61252;SDS011;47127;47.516;8.596;2023-04-10T13:21:26;4.72;;;2.45;;
61252;SDS011;47127;47.516;8.596;2023-04-10T13:23:53;3.53;;;2.35;;
61252;SDS011;47127;47.516;8.596;2023-04-10T13:26:20;7.22;;;2.63;;
61252;SDS011;47127;47.516;8.596;2023-04-10T13:28:45;4.45;;;3.05;;
61252;SDS011;47127;47.516;8.596;2023-04-10T13:31:11;4.32;;;2.50;;
61252;SDS011;47127;47.516;8.596;2023-04-10T13:33:39;3.90;;;2.50;;
61252;SDS011;47127;47.516;8.596;2023-04-10T13:36:05;4.30;;;2.38;;
61252;SDS011;47127;47.516;8.596;2023-04-10T13:38:31;5.68;;;2.42;;
61252;SDS011;47127;47.516;8.596;2023-04-10T13:40:57;4.45;;;2.67;;
61252;SDS011;47127;47.516;8.596;2023-04-10T13:43:23;4.28;;;2.30;;
61252;SDS011;47127;47.516;8.596;2023-04-10T13:45:48;3.97;;;2.28;;
61252;SDS011;47127;47.516;8.596;2023-04-10T13:48:14;5.00;;;2.50;;
61252;SDS011;47127;47.516;8.596;2023-04-10T13:50:42;3.97;;;2.33;;
61252;SDS011;47127;47.516;8.596;2023-04-10T13:53:07;3.88;;;2.42;;
61252;SDS011;47127;47.516;8.596;2023-04-10T13:55:34;6.30;;;2.70;;
61252;SDS011;47127;47.516;8.596;2023-04-10T13:58:01;4.53;;;2.50;;
61252;SDS011;47127;47.516;8.596;2023-04-10T14:00:27;6.60;;;2.70;;
61252;SDS011;47127;47.516;8.596;2023-04-10T14:02:52;4.18;;;2.38;;
61252;SDS011;47127;47.516;8.596;2023-04-10T14:05:18;3.42;;;2.20;;
61252;SDS011;47127;47.516;8.596;2023-04-10T14:07:43;4.68;;;2.72;;
61252;SDS011;47127;47.516;8.596;2023-04-10T14:10:10;6.75;;;2.90;;
61252;SDS011;47127;47.516;8.596;2023-04-10T14:12:36;4.75;;;2.67;;
61252;SDS011;47127;47.516;8.596;2023-04-10T14:15:01;5.00;;;2.60;;
61252;SDS011;47127;47.516;8.596;2023-04-10T14:17:27;4.07;;;2.70;;
61252;SDS011;47127;47.516;8.596;2023-04-10T14:19:52;5.22;;;2.70;;
61252;SDS011;47127;47.516;8.596;2023-04-10T14:22:18;5.53;;;2.83;;
61252;SDS011;47127;47.516;8.596;2023-04-10T14:24:44;7.13;;;2.90;;
61252;SDS011;47127;47.516;8.596;2023-04-10T14:27:10;4.88;;;2.72;;
61252;SDS011;47127;47.516;8.596;2023-04-10T14:29:36;4.15;;;2.00;;
61252;SDS011;47127;47.516;8.596;2023-04-10T14:32:01;8.98;;;3.00;;
61252;SDS011;47127;47.516;8.596;2023-04-10T14:34:27;4.90;;;2.35;;
61252;SDS011;47127;47.516;8.596;2023-04-10T14:36:54;4.13;;;2.58;;
61252;SDS011;47127;47.516;8.596;2023-04-10T14:39:21;4.63;;;2.40;;
61252;SDS011;47127;47.516;8.596;2023-04-10T14:41:47;5.50;;;2.45;;
61252;SDS011;47127;47.516;8.596;2023-04-10T14:44:13;3.95;;;2.33;;
61252;SDS011;47127;47.516;8.596;2023-04-10T14:46:38;4.18;;;2.85;;
61252;SDS011;47127;47.516;8.596;2023-04-10T14:49:04;4.05;;;2.10;;
61252;SDS011;47127;47.516;8.596;2023-04-10T14:51:29;5.03;;;2.08;;
61252;SDS011;47127;47.516;8.596;2023-04-10T14:53:55;5.22;;;2.30;;
61252;SDS011;47127;47.516;8.596;2023-04-10T14:56:21;4.25;;;2.22;;
61252;SDS011;47127;47.516;8.596;2023-04-10T14:58:46;3.38;;;2.00;;
61252;SDS011;47127;47.516;8.596;2023-04-10T15:01:12;4.32;;;2.30;;
61252;SDS011;47127;47.516;8.596;2023-04-10T15:03:38;3.45;;;2.15;;
61252;SDS011;47127;47.516;8.596;2023-04-10T15:06:04;3.13;;;1.92;;
61252;SDS011;47127;47.516;8.596;2023-04-10T15:08:30;4.18;;;1.85;;
61252;SDS011;47127;47.516;8.596;2023-04-10T15:10:56;3.80;;;2.15;;
61252;SDS011;47127;47.516;8.596;2023-04-10T15:13:21;4.20;;;2.33;;
61252;SDS011;47127;47.516;8.596;2023-04-10T15:15:47;3.47;;;1.67;;
61252;SDS011;47127;47.516;8.596;2023-04-10T15:18:13;3.88;;;1.75;;
61252;SDS011;47127;47.516;8.596;2023-04-10T15:20:39;3.90;;;1.83;;
61252;SDS011;47127;47.516;8.596;2023-04-10T15:23:05;2.40;;;1.50;;
61252;SDS011;47127;47.516;8.596;2023-04-10T15:25:32;2.70;;;1.60;;